SBSV/SSA METAR and TAF weather

Enter ICAO airport designator
Station Type Date Time Source
SBSV METAR 2019/12/10 06:00 UTC NOAA

SBSV 100600Z 07008KT 9999 SCT020 27/23 Q1012


Station Type Date Time Source
SBSV Decoded METAR 2019/12/10 06:00 UTC NOAA

Salvador Aeroporto , Brazil (SBSV) 12-54S 038-20W 13M
Dec 10, 2019 - 01:00 AM EST / 2019.12.10 0600 UTC
Wind: from the ENE (070 degrees) at 9 MPH (8 KT):0
Visibility: greater than 7 mile(s):0
Sky conditions: partly cloudy
Temperature: 80 F (27 C)
Dew Point: 73 F (23 C)
Relative Humidity: 78%
Pressure (altimeter): 29.88 in. Hg (1012 hPa)
ob: SBSV 100600Z 07008KT 9999 SCT020 27/23 Q1012
cycle: 6

Station Type Date Time Source
SBSV TAF 2019/12/10 06:42 UTC NOAA

TAF SBSV 100400Z 1006/1106 10008KT 8000 SCT017 TN24/1009Z TX29/1016Z
BECMG 1010/1012 18008KT PROB30 1011/1013 4500 SHRA BKN015 FEW025TCU
BECMG 1016/1017 12009KT
BECMG 1019/1021 08014KT
RMK PEU

Example: see airport list